Time;durP1;ratioP1;P1;durP2;ratioP2;P2;SDS_P1;SDS_P2;PMS_P1;PMS_P2;Temp;Humidity;BMP_temperature;BMP_pressure;BME280_temperature;BME280_humidity;BME280_pressure;Samples;Min_cycle;Max_cycle;Signal;HPM_P1;HPM_P2
2021/05/02 00:01:43;;;;;;;22.00;16.57;;;;;;;13.88;83.07;99667.05;1781442;80;21220;-76
2021/05/02 00:04:12;;;;;;;20.17;15.35;;;;;;;13.87;83.05;99670.61;1781932;80;21172;-76
2021/05/02 00:06:42;;;;;;;18.98;14.55;;;;;;;13.85;83.25;99669.40;1781670;80;21427;-76
2021/05/02 00:09:10;;;;;;;21.80;16.37;;;;;;;13.85;83.23;99676.02;1781881;80;21212;-78
2021/05/02 00:11:38;;;;;;;24.35;17.35;;;;;;;13.85;83.31;99670.73;1781564;80;21162;-76
2021/05/02 00:14:06;;;;;;;23.42;16.95;;;;;;;13.85;83.06;99667.23;1781680;80;21153;-76
2021/05/02 00:16:36;;;;;;;23.27;15.85;;;;;;;13.85;83.21;99667.23;1781857;80;21618;-75
2021/05/02 00:19:09;;;;;;;24.85;15.93;;;;;;;13.83;83.21;99661.17;1781810;80;21205;-74
2021/05/02 00:21:39;;;;;;;21.62;15.63;;;;;;;13.81;83.22;99653.78;1781554;80;21415;-74
2021/05/02 00:24:08;;;;;;;21.80;16.75;;;;;;;13.80;83.57;99649.42;1781955;80;21672;-78
2021/05/02 00:26:37;;;;;;;26.50;18.05;;;;;;;13.78;83.52;99643.36;1781690;80;21682;-76
2021/05/02 00:29:06;;;;;;;24.98;18.27;;;;;;;13.79;84.00;99642.44;1782096;80;21567;-78
2021/05/02 00:31:34;;;;;;;27.87;18.87;;;;;;;13.76;84.10;99633.36;1781744;80;21640;-79
2021/05/02 00:34:03;;;;;;;26.80;18.50;;;;;;;13.72;84.54;99625.21;1781745;80;21241;-78
2021/05/02 00:36:31;;;;;;;26.48;18.70;;;;;;;13.68;84.68;99617.91;1781619;80;21210;-77
2021/05/02 00:38:59;;;;;;;23.80;17.95;;;;;;;13.66;85.08;99616.30;1781670;80;21199;-78
2021/05/02 00:41:33;;;;;;;24.75;17.32;;;;;;;13.61;85.12;99609.47;1781425;80;21198;-78
2021/05/02 00:44:05;;;;;;;25.65;17.42;;;;;;;13.59;85.22;99605.20;1781792;80;21191;-77
2021/05/02 00:48:17;;;;;;;23.62;17.25;;;;;;;13.56;85.46;99603.59;1814007;79;22412;-77
2021/05/02 00:51:00;;;;;;;25.97;17.30;;;;;;;13.50;85.54;99606.58;1786892;80;21135;-76
2021/05/02 00:53:36;;;;;;;16.82;13.72;;;;;;;13.49;85.41;99601.41;1786442;80;22224;-77
2021/05/02 00:56:27;;;;;;;21.45;15.95;;;;;;;13.47;85.75;99605.45;1786977;80;21135;-78
2021/05/02 00:59:11;;;;;;;26.65;16.05;;;;;;;13.46;85.74;99594.50;1787164;80;21157;-77
2021/05/02 01:01:47;;;;;;;23.55;15.35;;;;;;;13.43;86.09;99591.56;1786741;80;21167;-76
2021/05/02 01:04:23;;;;;;;22.95;16.80;;;;;;;13.40;86.49;99590.88;1786972;80;21195;-77
2021/05/02 01:06:51;;;;;;;23.20;15.55;;;;;;;13.39;86.29;99590.50;1786793;80;21427;-76
2021/05/02 01:09:20;;;;;;;23.40;16.32;;;;;;;13.37;86.44;99591.06;1786855;80;21569;-77
2021/05/02 01:11:48;;;;;;;21.17;16.10;;;;;;;13.35;86.53;99595.11;1786715;80;21673;-78
2021/05/02 01:14:19;;;;;;;22.58;15.90;;;;;;;13.33;86.66;99598.30;1761573;80;21198;-77
2021/05/02 01:16:47;;;;;;;21.27;15.83;;;;;;;13.32;86.73;99595.29;1755621;81;21622;-76
2021/05/02 01:19:15;;;;;;;22.27;16.05;;;;;;;13.30;86.66;99596.32;1755704;81;21828;-78
2021/05/02 01:21:44;;;;;;;22.22;16.00;;;;;;;13.25;87.21;99586.41;1755606;81;21170;-76
2021/05/02 01:24:13;;;;;;;23.22;15.83;;;;;;;13.25;87.32;99590.37;1726319;81;21210;-76
2021/05/02 01:26:43;;;;;;;22.10;15.40;;;;;;;13.25;87.76;99586.41;1755256;81;21173;-76
2021/05/02 01:29:16;;;;;;;18.90;14.35;;;;;;;13.22;87.75;99593.58;1755784;81;21203;-77
2021/05/02 01:31:44;;;;;;;20.77;15.53;;;;;;;13.21;87.90;99587.92;1755736;81;21821;-77
2021/05/02 01:34:12;;;;;;;23.50;15.80;;;;;;;13.20;88.34;99585.35;1755733;81;21641;-77
2021/05/02 01:36:41;;;;;;;26.80;15.60;;;;;;;13.18;88.28;99582.81;1755584;81;21146;-76
2021/05/02 01:39:08;;;;;;;18.95;14.18;;;;;;;13.16;88.15;99584.69;1726463;81;21211;-75
2021/05/02 01:41:38;;;;;;;19.60;14.80;;;;;;;13.15;88.69;99588.26;1755656;81;21202;-74
2021/05/02 01:44:06;;;;;;;20.62;14.13;;;;;;;13.14;88.71;99583.08;1755798;81;21675;-74
2021/05/02 01:46:38;;;;;;;20.52;13.98;;;;;;;13.10;89.82;99581.06;1747204;81;21212;-74
2021/05/02 01:49:10;;;;;;;21.15;13.78;;;;;;;13.08;90.00;99578.97;1713180;83;21199;-75
2021/05/02 01:51:40;;;;;;;21.42;13.05;;;;;;;13.07;90.23;99578.60;1712995;83;21257;-75
2021/05/02 01:54:08;;;;;;;18.27;13.40;;;;;;;13.02;91.18;99571.38;1713244;83;21615;-76
2021/05/02 01:56:36;;;;;;;16.10;12.37;;;;;;;13.01;91.77;99581.10;1713062;83;21202;-76
2021/05/02 01:59:05;;;;;;;18.23;13.53;;;;;;;12.98;92.30;99577.80;1712721;83;21207;-75
2021/05/02 02:01:33;;;;;;;17.80;13.08;;;;;;;12.96;92.86;99580.98;1712409;83;21238;-76
2021/05/02 02:04:04;;;;;;;18.57;12.47;;;;;;;12.95;93.19;99576.63;1712371;83;21219;-77
2021/05/02 02:06:33;;;;;;;16.70;12.15;;;;;;;12.93;93.32;99576.73;1712590;83;21199;-76
2021/05/02 02:09:08;;;;;;;18.10;13.25;;;;;;;12.93;93.60;99577.17;1712651;83;21398;-74
2021/05/02 02:11:42;;;;;;;21.05;12.15;;;;;;;12.93;93.88;99570.56;1767601;81;21261;-74
2021/05/02 02:14:10;;;;;;;17.55;12.15;;;;;;;12.93;94.09;99570.56;1633695;86;21212;-74
2021/05/02 02:16:44;;;;;;;17.42;11.93;;;;;;;12.91;94.25;99571.14;1641747;86;21193;-74
2021/05/02 02:19:13;;;;;;;15.70;13.10;;;;;;;12.93;94.26;99563.95;1649865;86;21755;-77
2021/05/02 02:21:42;;;;;;;15.75;12.07;;;;;;;12.91;94.33;99557.45;1649634;86;21487;-75
2021/05/02 02:24:12;;;;;;;16.40;12.80;;;;;;;12.91;94.45;99563.22;1649905;86;21197;-75
2021/05/02 02:26:51;;;;;;;17.00;13.00;;;;;;;12.92;94.44;99555.66;1650890;86;21626;-74
2021/05/02 02:29:20;;;;;;;15.05;11.78;;;;;;;12.90;94.54;99567.63;1653054;86;21195;-76
2021/05/02 02:31:48;;;;;;;17.82;11.53;;;;;;;12.88;94.77;99558.92;1652827;86;21218;-73
2021/05/02 02:34:16;;;;;;;14.80;11.40;;;;;;;12.89;94.86;99565.09;1652871;86;21325;-75
2021/05/02 02:36:44;;;;;;;15.30;11.68;;;;;;;12.89;94.90;99561.97;1661297;85;21239;-75
2021/05/02 02:39:15;;;;;;;15.75;11.33;;;;;;;12.89;94.94;99562.45;1669479;85;21156;-76
2021/05/02 02:41:44;;;;;;;14.78;11.10;;;;;;;12.88;95.03;99567.33;1654364;85;21242;-76
2021/05/02 02:44:12;;;;;;;16.97;10.80;;;;;;;12.90;94.82;99564.14;1669291;85;21218;-77
2021/05/02 02:46:48;;;;;;;15.10;11.00;;;;;;;12.92;94.81;99555.66;1669270;85;21537;-75
2021/05/02 02:49:17;;;;;;;15.70;11.83;;;;;;;12.92;94.44;99551.70;1664202;85;21713;-77
2021/05/02 02:51:45;;;;;;;14.33;10.98;;;;;;;12.92;94.21;99554.34;1652702;86;21210;-75
2021/05/02 02:54:13;;;;;;;13.48;10.38;;;;;;;12.93;93.86;99549.42;1652724;86;21219;-75
2021/05/02 02:56:43;;;;;;;14.45;10.75;;;;;;;12.93;93.98;99542.81;1652700;86;21191;-74
2021/05/02 02:59:26;;;;;;;15.90;10.90;;;;;;;12.96;94.02;99540.02;1653213;86;21376;-79
2021/05/02 03:01:55;;;;;;;16.87;10.25;;;;;;;12.96;93.93;99538.70;1652673;86;21386;-76
2021/05/02 03:04:24;;;;;;;15.63;10.68;;;;;;;12.98;93.93;99535.50;1653857;86;21183;-75
2021/05/02 03:06:54;;;;;;;13.00;9.88;;;;;;;13.02;93.89;99539.66;1628165;86;21285;-74
2021/05/02 03:09:22;;;;;;;15.93;10.85;;;;;;;13.03;93.71;99536.09;1657892;86;21234;-75
2021/05/02 03:11:50;;;;;;;13.70;9.95;;;;;;;13.04;93.50;99537.78;1639511;86;21289;-75
2021/05/02 03:14:18;;;;;;;14.18;10.25;;;;;;;13.07;93.44;99537.63;1665095;86;21239;-75
2021/05/02 03:16:48;;;;;;;15.85;9.83;;;;;;;13.07;93.36;99529.70;1665365;86;21212;-75
2021/05/02 03:19:27;;;;;;;14.80;10.05;;;;;;;13.11;93.31;99536.97;1665475;86;21205;-76
2021/05/02 03:22:08;;;;;;;13.05;8.33;;;;;;;13.12;93.20;99535.56;1665524;86;21187;-76
2021/05/02 03:24:44;;;;;;;12.78;9.48;;;;;;;13.13;93.09;99537.26;1665714;86;21226;-76
2021/05/02 03:27:26;;;;;;;13.40;9.45;;;;;;;13.15;92.91;99552.56;1661041;86;21207;-77
2021/05/02 03:29:55;;;;;;;10.23;8.15;;;;;;;13.17;92.82;99554.66;1651290;86;21207;-77
2021/05/02 03:32:26;;;;;;;16.57;9.28;;;;;;;13.20;92.79;99553.18;1658813;85;21210;-79
2021/05/02 03:34:55;;;;;;;14.33;9.23;;;;;;;13.18;93.15;99551.09;1632650;87;21136;-76
2021/05/02 03:37:25;;;;;;;12.05;9.38;;;;;;;13.18;93.21;99548.45;1632286;86;21379;-75
2021/05/02 03:39:54;;;;;;;;;;;;;;;13.20;93.05;99549.22;1662648;86;21207;-75
2021/05/02 03:42:22;;;;;;;13.22;9.53;;;;;;;13.21;93.03;99549.58;1660401;86;20263;-75
2021/05/02 03:44:51;;;;;;;13.58;8.83;;;;;;;13.26;92.97;99547.16;1660616;86;21218;-74
2021/05/02 03:47:21;;;;;;;11.83;9.03;;;;;;;13.29;92.77;99538.59;1626052;88;21520;-74
2021/05/02 03:49:49;;;;;;;13.13;9.15;;;;;;;13.33;92.70;99540.59;1637015;86;21454;-75
2021/05/02 03:52:17;;;;;;;11.45;8.75;;;;;;;13.37;92.59;99539.48;1693383;84;21155;-74
2021/05/02 03:54:47;;;;;;;11.40;8.90;;;;;;;13.39;92.34;99533.16;1693513;84;21186;-74
2021/05/02 03:57:15;;;;;;;12.65;8.33;;;;;;;13.44;92.24;99540.83;1650872;86;21263;-77
2021/05/02 03:59:43;;;;;;;11.70;8.63;;;;;;;13.49;92.02;99544.05;1683358;84;21178;-77
2021/05/02 04:02:13;;;;;;;11.95;8.25;;;;;;;13.53;91.90;99544.27;1674625;84;22280;-76
2021/05/02 04:04:42;;;;;;;13.00;8.20;;;;;;;13.60;91.85;99553.54;1673488;84;21236;-76
2021/05/02 04:07:11;;;;;;;12.82;8.43;;;;;;;13.63;91.54;99553.35;1657214;86;21655;-75
2021/05/02 04:09:42;;;;;;;11.30;8.83;;;;;;;13.68;91.50;99557.53;1671593;85;21203;-77
2021/05/02 04:12:11;;;;;;;13.62;8.33;;;;;;;13.72;91.25;99555.09;1657475;86;21718;-74
2021/05/02 04:14:41;;;;;;;6.58;5.15;;;;;;;13.77;90.92;99553.86;1636918;86;22228;-75
2021/05/02 04:17:10;;;;;;;12.68;8.53;;;;;;;13.83;90.63;99550.02;1629892;87;21213;-80
2021/05/02 04:19:47;;;;;;;12.03;9.03;;;;;;;13.91;90.51;99548.22;1682843;85;21212;-73
2021/05/02 04:22:17;;;;;;;11.10;8.45;;;;;;;14.01;90.29;99539.64;1676145;85;21634;-75
2021/05/02 04:24:46;;;;;;;12.25;7.95;;;;;;;14.14;89.72;99532.27;1631417;87;21205;-78
2021/05/02 04:27:14;;;;;;;13.45;8.48;;;;;;;14.24;89.09;99530.73;1612243;87;21699;-72
2021/05/02 04:29:43;;;;;;;11.83;8.38;;;;;;;14.31;88.47;99526.79;1623024;87;21189;-74
2021/05/02 04:32:11;;;;;;;13.50;8.65;;;;;;;14.39;88.14;99529.80;1624935;87;21215;-72
2021/05/02 04:34:39;;;;;;;14.00;9.60;;;;;;;14.44;87.53;99522.41;1644988;87;21180;-70
2021/05/02 04:37:07;;;;;;;14.33;9.33;;;;;;;14.45;87.50;99520.16;1645029;87;21175;-72
2021/05/02 04:58:53;;;;;;;9.60;6.72;;;;;;;15.42;84.00;99505.13;1821815;77;23187;-66
2021/05/02 05:01:22;;;;;;;10.18;6.47;;;;;;;15.41;83.38;99516.67;1811803;78;21205;-66
2021/05/02 05:03:58;;;;;;;10.75;7.37;;;;;;;15.32;83.47;99508.84;1809320;75;28553;-65
2021/05/02 05:06:26;;;;;;;9.35;7.25;;;;;;;15.28;84.06;99510.86;1735602;80;21178;-66
2021/05/02 05:08:54;;;;;;;9.95;6.70;;;;;;;15.27;84.29;99519.75;1748641;81;21250;-67
2021/05/02 05:11:22;;;;;;;12.47;6.72;;;;;;;15.24;84.44;99527.08;1739677;82;21183;-65
2021/05/02 05:13:51;;;;;;;11.73;6.90;;;;;;;15.22;84.56;99524.52;1723908;82;21193;-66
2021/05/02 05:16:19;;;;;;;8.43;6.47;;;;;;;15.19;84.72;99516.78;1808527;79;21155;-66
2021/05/02 05:18:49;;;;;;;10.25;7.65;;;;;;;15.19;85.15;99516.78;1813597;79;21096;-65
2021/05/02 05:21:18;;;;;;;9.93;6.60;;;;;;;15.17;85.06;99507.22;1813675;79;21370;-66
2021/05/02 05:23:47;;;;;;;10.45;6.97;;;;;;;15.18;85.16;99509.75;1813569;79;21550;-66
2021/05/02 05:26:15;;;;;;;13.22;7.47;;;;;;;15.18;84.72;99512.41;1811136;79;21123;-66
2021/05/02 05:28:43;;;;;;;11.97;6.62;;;;;;;15.23;84.62;99510.77;1806672;79;21735;-66
2021/05/02 05:31:11;;;;;;;10.28;6.78;;;;;;;15.27;84.30;99511.80;1778499;79;21135;-67
2021/05/02 05:33:39;;;;;;;10.58;6.67;;;;;;;15.33;84.00;99511.04;1815333;79;21205;-66
2021/05/02 05:36:08;;;;;;;9.85;6.70;;;;;;;15.36;83.89;99510.83;1815216;79;21621;-66
2021/05/02 05:38:37;;;;;;;11.38;6.92;;;;;;;15.40;83.68;99511.00;1815535;79;21171;-65
2021/05/02 05:41:05;;;;;;;10.38;6.72;;;;;;;15.45;83.57;99510.20;1815215;79;21197;-66
2021/05/02 05:43:33;;;;;;;12.00;6.67;;;;;;;15.50;83.26;99501.45;1815312;79;21420;-66
2021/05/02 05:46:01;;;;;;;8.08;6.42;;;;;;;15.58;83.04;99506.27;1815406;79;21363;-69
2021/05/02 05:48:28;;;;;;;10.65;6.70;;;;;;;15.64;82.55;99502.69;1803444;79;21518;-66
2021/05/02 05:50:57;;;;;;;10.85;7.17;;;;;;;15.68;82.19;99508.17;1783137;79;21155;-66
2021/05/02 05:53:25;;;;;;;11.12;6.85;;;;;;;15.72;82.13;99507.05;1776395;79;21084;-66
2021/05/02 05:55:56;;;;;;;10.93;7.25;;;;;;;15.82;82.08;99502.44;1777430;79;21143;-67
2021/05/02 05:58:24;;;;;;;13.08;7.17;;;;;;;15.88;81.59;99500.70;1783667;80;21448;-68
2021/05/02 06:00:52;;;;;;;14.75;7.22;;;;;;;15.92;81.40;99496.88;1773376;80;21162;-67
2021/05/02 06:03:20;;;;;;;10.65;7.05;;;;;;;15.99;80.99;99492.84;1768798;80;21159;-66
2021/05/02 06:07:45;;;;;;;9.48;7.10;;;;;;;16.21;80.74;99497.97;1796181;78;27411;-95
2021/05/02 06:10:18;;;;;;;12.00;7.28;;;;;;;16.21;79.70;99500.63;1773807;80;21146;-95
2021/05/02 06:12:53;;;;;;;12.35;7.28;;;;;;;16.24;79.55;99485.78;1773794;80;21366;-96
2021/05/02 06:15:30;;;;;;;12.45;7.58;;;;;;;16.25;79.31;99491.00;1783198;80;21024;-96
2021/05/02 06:18:08;;;;;;;11.45;7.42;;;;;;;16.29;79.20;99494.30;1779187;78;21007;-96
2021/05/02 06:20:57;;;;;;;13.48;8.08;;;;;;;16.28;79.14;99487.27;1751599;77;73566;-71
2021/05/02 06:23:26;;;;;;;15.88;7.72;;;;;;;16.24;79.34;99477.81;1680311;84;21178;-68
2021/05/02 06:25:53;;;;;;;12.05;7.87;;;;;;;16.22;79.03;99479.27;1658330;84;21678;-68
2021/05/02 06:28:22;;;;;;;17.45;8.05;;;;;;;16.23;79.26;99484.10;1711682;81;21222;-67
2021/05/02 06:30:51;;;;;;;12.23;8.13;;;;;;;16.25;79.52;99484.84;1697153;82;21324;-66
2021/05/02 06:33:19;;;;;;;13.20;7.42;;;;;;;16.38;79.43;99472.39;1686786;83;21292;-66
2021/05/02 06:35:47;;;;;;;13.13;7.70;;;;;;;16.50;78.06;99471.50;1713764;81;21225;-67
2021/05/02 06:38:16;;;;;;;10.68;7.65;;;;;;;16.54;77.77;99468.13;1676130;84;21233;-67
2021/05/02 06:40:44;;;;;;;12.13;8.05;;;;;;;16.54;77.66;99472.98;1652634;84;22230;-66
2021/05/02 06:43:12;;;;;;;12.73;7.58;;;;;;;16.47;77.83;99473.52;1671250;84;21226;-67
2021/05/02 06:45:43;;;;;;;12.03;7.87;;;;;;;16.46;77.95;99475.33;1676006;84;21239;-66
2021/05/02 06:48:11;;;;;;;17.12;9.05;;;;;;;16.48;77.87;99477.89;1686653;84;21278;-66
2021/05/02 06:50:41;;;;;;;15.00;8.43;;;;;;;16.46;77.66;99471.34;1683150;83;21391;-68
2021/05/02 06:53:10;;;;;;;15.32;10.10;;;;;;;16.51;78.00;99457.73;1679566;83;21199;-65
2021/05/02 06:55:38;;;;;;;15.98;8.48;;;;;;;16.61;77.32;99465.42;1674015;84;21211;-66
2021/05/02 06:58:08;;;;;;;13.15;8.95;;;;;;;16.75;77.39;99459.09;1687731;84;21178;-66
2021/05/02 07:00:38;;;;;;;12.30;8.93;;;;;;;16.86;77.14;99469.80;1688390;84;21231;-67
2021/05/02 07:03:06;;;;;;;14.63;9.25;;;;;;;16.96;77.04;99465.52;1711737;82;21858;-67
2021/05/02 07:05:35;;;;;;;15.13;8.78;;;;;;;17.06;75.96;99467.49;1716563;82;21319;-66
2021/05/02 07:08:04;;;;;;;15.18;8.58;;;;;;;17.07;75.86;99471.38;1711884;81;21207;-67
2021/05/02 07:10:32;;;;;;;12.23;7.72;;;;;;;17.02;75.75;99484.63;1658048;85;21212;-66
2021/05/02 07:13:00;;;;;;;17.37;8.40;;;;;;;16.98;76.05;99490.19;1681961;82;21131;-65
2021/05/02 07:15:29;;;;;;;13.38;8.75;;;;;;;16.97;75.78;99488.47;1668939;84;21451;-66
2021/05/02 07:17:57;;;;;;;14.90;8.98;;;;;;;16.98;76.30;99502.16;1680356;84;21183;-67
2021/05/02 07:20:25;;;;;;;17.45;11.12;;;;;;;16.94;76.79;99513.14;1697237;81;21731;-67
2021/05/02 07:22:54;;;;;;;16.17;8.70;;;;;;;16.89;76.99;99511.30;1705489;81;21250;-66
2021/05/02 07:25:24;;;;;;;19.52;9.38;;;;;;;16.85;76.70;99513.32;1703212;82;21212;-67
2021/05/02 07:27:52;;;;;;;19.25;10.15;;;;;;;16.83;76.76;99493.97;1698721;82;22233;-68
2021/05/02 07:30:21;;;;;;;22.22;10.10;;;;;;;16.80;76.89;99484.89;1703103;83;21204;-67
2021/05/02 07:32:50;;;;;;;16.75;10.60;;;;;;;16.78;76.54;99489.44;1717550;83;21704;-66
2021/05/02 07:35:19;;;;;;;15.35;9.88;;;;;;;16.79;76.74;99492.48;1717647;83;21230;-67
2021/05/02 07:37:47;;;;;;;19.27;10.28;;;;;;;16.82;76.77;99488.30;1713553;83;21278;-67
2021/05/02 07:40:15;;;;;;;17.17;9.90;;;;;;;16.83;76.57;99488.64;1693781;83;21816;-67
2021/05/02 07:42:43;;;;;;;19.62;10.18;;;;;;;16.89;76.80;99498.84;1683583;84;21669;-68
2021/05/02 07:45:12;;;;;;;18.85;10.08;;;;;;;16.96;75.84;99492.11;1690511;83;21195;-67
2021/05/02 07:47:41;;;;;;;17.55;10.08;;;;;;;16.93;75.33;99500.33;1677690;83;21185;-67
2021/05/02 07:50:11;;;;;;;19.87;10.68;;;;;;;16.94;75.32;99482.55;1656746;85;21236;-67
2021/05/02 07:52:42;;;;;;;17.70;10.45;;;;;;;17.01;75.91;99474.97;1656912;85;21215;-67
2021/05/02 07:55:11;;;;;;;17.45;8.85;;;;;;;17.06;74.64;99467.49;1655797;85;21715;-67
2021/05/02 07:57:40;;;;;;;13.95;9.48;;;;;;;17.11;74.79;99467.50;1658367;85;21622;-67
2021/05/02 08:00:09;;;;;;;18.55;9.50;;;;;;;17.17;74.67;99472.86;1648306;85;21253;-70
2021/05/02 08:02:42;;;;;;;16.62;9.05;;;;;;;17.19;73.95;99470.94;1651031;85;21217;-71
2021/05/02 08:05:11;;;;;;;18.57;8.98;;;;;;;17.20;73.35;99470.80;1708481;82;21327;-69
2021/05/02 08:07:44;;;;;;;17.80;9.03;;;;;;;17.19;73.67;99469.61;1683639;83;21178;-69
2021/05/02 08:10:12;;;;;;;17.42;9.15;;;;;;;17.25;73.89;99478.44;1677590;84;21212;-68
2021/05/02 08:12:43;;;;;;;19.48;9.50;;;;;;;17.27;73.09;99472.52;1711548;82;21200;-70
2021/05/02 08:15:12;;;;;;;17.95;9.68;;;;;;;17.30;73.45;99468.32;1717028;83;21159;-70
2021/05/02 08:17:41;;;;;;;15.13;8.93;;;;;;;17.40;74.01;99469.80;1707338;83;21331;-71
2021/05/02 08:20:11;;;;;;;19.30;10.53;;;;;;;17.48;72.94;99459.89;1705534;83;21226;-70
2021/05/02 08:22:39;;;;;;;16.60;9.38;;;;;;;17.43;72.93;99459.39;1706187;83;21657;-70
2021/05/02 08:25:08;;;;;;;19.92;10.00;;;;;;;17.37;73.05;99466.89;1705216;81;21179;-69
2021/05/02 08:27:36;;;;;;;17.32;10.48;;;;;;;17.29;72.87;99458.63;1716293;82;21186;-68
2021/05/02 08:30:08;;;;;;;19.90;10.38;;;;;;;17.23;73.28;99456.45;1655523;85;21407;-69
2021/05/02 08:32:37;;;;;;;20.45;10.85;;;;;;;17.23;73.45;99448.47;1692808;83;21270;-70
2021/05/02 08:35:08;;;;;;;22.17;11.57;;;;;;;17.24;73.21;99443.50;1693638;81;21649;-69
2021/05/02 08:37:38;;;;;;;23.10;10.85;;;;;;;17.24;73.43;99439.50;1697027;81;21231;-68
2021/05/02 08:40:07;;;;;;;15.55;8.40;;;;;;;17.25;73.16;99442.52;1700256;83;21614;-68
2021/05/02 08:42:38;;;;;;;21.02;11.20;;;;;;;17.31;73.52;99448.72;1685070;83;22222;-69
2021/05/02 08:45:07;;;;;;;20.30;11.00;;;;;;;17.42;73.44;99443.92;1679418;83;21262;-69
2021/05/02 08:47:37;;;;;;;21.82;11.63;;;;;;;17.50;73.09;99444.66;1676196;83;21203;-69
2021/05/02 08:50:10;;;;;;;21.62;11.95;;;;;;;17.53;72.28;99431.09;1677197;83;21271;-68
2021/05/02 08:52:39;;;;;;;28.60;15.45;;;;;;;17.52;72.01;99429.41;1689939;83;21203;-70
2021/05/02 08:55:09;;;;;;;24.35;15.60;;;;;;;17.48;72.17;99438.59;1695508;83;21710;-69
2021/05/02 08:57:38;;;;;;;34.15;17.52;;;;;;;17.39;72.07;99435.69;1687321;83;21293;-73
2021/05/02 09:00:09;;;;;;;25.97;14.03;;;;;;;17.31;72.66;99438.06;1671379;83;21208;-81
2021/05/02 09:02:38;;;;;;;26.73;15.15;;;;;;;17.27;72.71;99435.76;1679839;83;21215;-76
2021/05/02 09:05:08;;;;;;;;;;;;;;;17.24;72.78;99428.02;1685354;83;21206;-74
2021/05/02 09:07:47;;;;;;;26.25;15.48;;;;;;;17.23;73.17;99416.53;1648647;85;21328;-72
2021/05/02 09:10:18;;;;;;;28.57;15.10;;;;;;;17.28;72.96;99410.38;1677765;83;21237;-72
2021/05/02 09:12:59;;;;;;;21.05;13.32;;;;;;;17.38;72.92;99412.68;1682570;83;21776;-77
2021/05/02 09:15:31;;;;;;;29.60;14.58;;;;;;;17.46;72.79;99405.92;1668611;83;21230;-74
2021/05/02 09:20:51;;;;;;;20.35;12.60;;;;;;;17.62;71.68;99403.76;1689695;83;21218;-71
2021/05/02 09:23:18;;;;;;;24.63;13.32;;;;;;;17.60;71.62;99388.41;1680852;83;21198;-74
2021/05/02 09:25:54;;;;;;;24.77;12.85;;;;;;;17.60;71.43;99387.09;1700375;83;21710;-73
2021/05/02 09:28:47;;;;;;;21.73;12.47;;;;;;;17.62;71.36;99394.44;1688947;82;21196;-72
2021/05/02 09:31:28;;;;;;;23.57;13.75;;;;;;;17.61;71.38;99390.94;1674672;83;21252;-74
2021/05/02 09:34:15;;;;;;;23.77;13.15;;;;;;;17.59;71.26;99389.37;1700696;83;22366;-72
2021/05/02 09:37:06;;;;;;;27.55;13.83;;;;;;;17.59;71.69;99388.03;1705981;81;21167;-74
2021/05/02 09:39:47;;;;;;;25.12;13.68;;;;;;;17.57;71.46;99390.80;1717107;82;21206;-72
2021/05/02 09:42:32;;;;;;;26.27;14.15;;;;;;;17.57;71.78;99395.29;1702224;81;21226;-73
2021/05/02 09:45:01;;;;;;;24.57;14.28;;;;;;;17.54;71.94;99392.88;1718819;82;21693;-74
2021/05/02 09:47:42;;;;;;;25.55;13.15;;;;;;;17.54;72.13;99393.72;1658531;84;21756;-76
2021/05/02 09:50:18;;;;;;;24.82;13.93;;;;;;;17.58;72.61;99384.53;1703841;83;21627;-72
2021/05/02 09:53:05;;;;;;;19.65;12.15;;;;;;;17.61;71.84;99388.77;1698993;83;21293;-72
2021/05/02 09:55:42;;;;;;;21.25;12.15;;;;;;;17.61;72.33;99383.44;1712566;83;21207;-71
2021/05/02 09:58:19;;;;;;;26.45;13.80;;;;;;;17.59;72.18;99386.70;1673638;82;21681;-71
2021/05/02 10:00:56;;;;;;;30.32;14.33;;;;;;;17.59;72.39;99380.89;1682963;83;21260;-71
2021/05/02 10:03:25;;;;;;;24.55;14.55;;;;;;;17.60;72.51;99385.27;1703059;83;21206;-72
2021/05/02 10:06:02;;;;;;;16.87;12.63;;;;;;;17.62;72.27;99386.45;1697704;83;21198;-73
2021/05/02 10:08:34;;;;;;;32.73;15.05;;;;;;;17.57;72.50;99392.63;1691120;83;21757;-70
2021/05/02 10:11:06;;;;;;;26.75;14.95;;;;;;;17.52;72.77;99389.48;1682432;83;21630;-71
2021/05/02 10:13:35;;;;;;;34.03;15.75;;;;;;;17.47;72.90;99389.00;1704630;83;21538;-72
2021/05/02 10:16:04;;;;;;;30.92;16.77;;;;;;;17.39;73.74;99389.56;1693683;83;21198;-71
2021/05/02 10:18:32;;;;;;;26.42;15.30;;;;;;;17.20;74.76;99383.48;1711639;81;21702;-72
2021/05/02 10:21:01;;;;;;;30.57;16.82;;;;;;;17.16;75.96;99399.31;1721580;82;21214;-72
2021/05/02 10:23:30;;;;;;;28.05;17.15;;;;;;;16.98;76.72;99405.08;1700088;82;21233;-71
2021/05/02 10:26:00;;;;;;;31.68;18.25;;;;;;;16.79;77.38;99407.39;1693848;83;21391;-71
2021/05/02 10:28:30;;;;;;;40.05;19.27;;;;;;;16.58;78.47;99407.98;1716542;83;21650;-71
2021/05/02 10:31:06;;;;;;;36.28;20.72;;;;;;;16.39;79.79;99410.30;1678095;83;21626;-72
2021/05/02 10:33:45;;;;;;;41.18;21.35;;;;;;;16.27;80.81;99417.84;1690870;83;21206;-71
2021/05/02 10:36:22;;;;;;;39.58;22.45;;;;;;;16.15;81.87;99431.52;1704621;82;21185;-71
2021/05/02 10:38:56;;;;;;;37.58;23.65;;;;;;;16.06;82.49;99426.38;1671266;84;21357;-71
2021/05/02 10:41:32;;;;;;;41.25;20.92;;;;;;;16.06;82.88;99425.05;1680795;84;21262;-71
2021/05/02 10:44:12;;;;;;;37.53;23.25;;;;;;;16.09;82.99;99426.16;1694833;83;21788;-71
2021/05/02 10:46:54;;;;;;;37.63;22.62;;;;;;;16.09;83.36;99422.17;1704720;83;21688;-70
2021/05/02 10:49:31;;;;;;;41.92;24.07;;;;;;;16.09;82.92;99418.19;1698028;82;21238;-71
2021/05/02 10:52:30;;;;;;;43.58;24.02;;;;;;;16.12;83.12;99411.31;1686251;84;22231;-72
2021/05/02 10:55:13;;;;;;;44.55;22.25;;;;;;;16.15;82.93;99411.12;1634578;85;21257;-72
2021/05/02 10:57:41;;;;;;;36.10;20.55;;;;;;;16.18;82.77;99409.20;1689533;83;21271;-70
2021/05/02 11:00:13;;;;;;;30.62;18.42;;;;;;;16.19;82.03;99402.92;1697625;81;21236;-71
2021/05/02 11:02:44;;;;;;;34.15;16.77;;;;;;;16.20;81.79;99400.65;1709790;83;21697;-72
2021/05/02 11:05:16;;;;;;;32.65;16.87;;;;;;;16.22;81.18;99392.94;1718228;83;21200;-71
2021/05/02 11:07:45;;;;;;;35.50;19.55;;;;;;;16.21;81.10;99390.38;1714178;83;21309;-73
2021/05/02 11:10:19;;;;;;;33.58;17.60;;;;;;;16.26;81.61;99386.91;1718492;83;21222;-71
2021/05/02 11:12:47;;;;;;;29.92;16.70;;;;;;;16.30;81.40;99376.43;1699242;83;21134;-72
2021/05/02 11:15:32;;;;;;;28.20;16.05;;;;;;;16.38;81.40;99383.37;1726093;83;21558;-71
2021/05/02 11:18:01;;;;;;;33.10;17.32;;;;;;;16.47;81.92;99373.41;1726262;83;21194;-71
2021/05/02 11:20:51;;;;;;;33.55;18.40;;;;;;;16.60;81.59;99373.33;1718729;83;21751;-72
2021/05/02 11:23:41;;;;;;;32.55;16.55;;;;;;;16.68;80.96;99379.39;1713732;83;21209;-73
2021/05/02 11:26:12;;;;;;;27.85;16.67;;;;;;;16.67;79.87;99375.05;1699661;83;21225;-71
2021/05/02 11:31:42;;;;;;;35.80;19.20;;;;;;;16.84;79.66;99376.02;1891295;76;22228;-72
2021/05/02 11:34:10;;;;;;;30.85;15.93;;;;;;;16.86;79.28;99371.41;1877683;76;21175;-71
2021/05/02 11:36:42;;;;;;;35.75;18.60;;;;;;;16.85;79.01;99366.22;1864963;76;22336;-71
2021/05/02 11:39:41;;;;;;;31.05;17.55;;;;;;;16.88;79.61;99368.64;1787055;79;21151;-71
2021/05/02 11:42:09;;;;;;;33.20;17.85;;;;;;;16.99;79.41;99364.20;1792885;79;21158;-70
2021/05/02 11:44:37;;;;;;;31.93;15.08;;;;;;;17.05;79.83;99361.58;1793221;78;21143;-72
2021/05/02 11:47:12;;;;;;;28.05;14.05;;;;;;;17.06;79.33;99359.75;1789155;79;21161;-70
2021/05/02 11:49:43;;;;;;;29.02;17.17;;;;;;;17.05;79.37;99372.70;1790472;78;21385;-71
2021/05/02 11:52:11;;;;;;;34.33;19.92;;;;;;;17.04;80.19;99355.88;1785770;79;21168;-71
2021/05/02 11:54:46;;;;;;;30.77;16.25;;;;;;;17.04;80.34;99353.70;1820597;78;21163;-71
2021/05/02 11:57:14;;;;;;;28.17;16.77;;;;;;;17.04;79.79;99347.05;1799150;78;21190;-72
2021/05/02 11:59:51;;;;;;;35.83;17.85;;;;;;;17.03;79.49;99346.21;1781579;78;21178;-72
2021/05/02 12:02:19;;;;;;;27.98;13.65;;;;;;;17.01;79.72;99330.84;1795342;79;21886;-71
2021/05/02 12:04:47;;;;;;;33.15;15.48;;;;;;;17.01;79.72;99326.02;1791072;79;21139;-72
2021/05/02 12:07:15;;;;;;;35.45;17.17;;;;;;;17.03;79.58;99329.41;1783346;80;21147;-72
2021/05/02 12:09:43;;;;;;;25.05;12.07;;;;;;;17.03;79.54;99330.73;1720341;81;21247;-72